Lawrence, Mississippi
Current Conditions -  °F | °C
As of 1:58 PM on Sunday 23 Nov 2014 (Local Time) from KMEI Reporting Station
Light Rain Light Rain  
Wind Chill: 67°   Ceiling: 3400
Heat Index: 67°   Visibility: 10mi
Dew Point: 58°   Wind: 16mph
Humidity: 73%   Direction: 210°SSW
Pressure: 29.53"   Gusts: 32mph
Location:  32.32°N, 89.23°W
Report Text: KMEI 231958Z 21014G28KT 10SM -RA FEW026 BKN034 OVC042 19/14 A2953 RMK AO2 PK WND 19029/1934 SLP998 P0000 T01940144
Loading
Personal Weather Stations






























Interactive Weather Map New forecast layout! Learn more

10-Day Weather Forecast

Advertisements
Track Severe Weather on mobile